createdAt,value
2022-10-22T00:00:09.725Z,80.25
2022-10-22T00:02:36.888Z,80.20
2022-10-22T00:05:04.805Z,80.21
2022-10-22T00:07:31.443Z,80.18
2022-10-22T00:09:58.442Z,80.23
2022-10-22T00:12:25.809Z,80.22
2022-10-22T00:14:52.466Z,80.08
2022-10-22T00:17:19.622Z,80.19
2022-10-22T00:19:46.133Z,80.40
2022-10-22T00:22:13.032Z,80.50
2022-10-22T00:24:40.550Z,80.68
2022-10-22T00:27:10.232Z,80.73
2022-10-22T00:29:37.192Z,80.87
2022-10-22T00:32:05.723Z,80.92
2022-10-22T00:34:33.193Z,80.98
2022-10-22T00:36:59.791Z,80.95
2022-10-22T00:39:28.283Z,80.89
2022-10-22T00:41:57.891Z,80.98
2022-10-22T00:45:11.388Z,80.99
2022-10-22T00:48:02.236Z,81.05
2022-10-22T00:50:38.357Z,81.19
2022-10-22T00:53:10.087Z,81.27
2022-10-22T00:55:37.660Z,81.37
2022-10-22T00:58:04.296Z,81.45
2022-10-22T01:00:32.036Z,81.53
2022-10-22T01:02:59.678Z,81.64
2022-10-22T01:05:31.699Z,81.81
2022-10-22T01:07:58.845Z,81.84
2022-10-22T01:10:39.829Z,81.90
2022-10-22T01:13:47.777Z,82.02
2022-10-22T01:16:24.558Z,82.09
2022-10-22T01:19:34.918Z,82.25
2022-10-22T01:22:35.710Z,82.40
2022-10-22T01:25:33.255Z,82.52
2022-10-22T01:28:38.543Z,82.69
2022-10-22T01:31:07.891Z,82.85
2022-10-22T01:33:34.652Z,82.99
2022-10-22T01:36:03.314Z,83.10
2022-10-22T01:38:30.756Z,83.18
2022-10-22T01:40:58.002Z,83.28
2022-10-22T01:43:24.563Z,83.27
2022-10-22T01:45:56.845Z,83.23
2022-10-22T01:49:01.376Z,83.57
2022-10-22T01:52:17.553Z,83.66
2022-10-22T01:55:14.576Z,83.37
2022-10-22T01:58:09.216Z,83.17
2022-10-22T02:00:40.306Z,83.17
2022-10-22T02:03:27.027Z,83.37
2022-10-22T02:06:01.959Z,83.49
2022-10-22T02:08:32.862Z,83.63
2022-10-22T02:11:01.148Z,83.62
2022-10-22T02:13:42.067Z,83.68
2022-10-22T02:16:14.027Z,83.77
2022-10-22T02:18:45.371Z,83.83
2022-10-22T02:21:12.407Z,83.87
2022-10-22T02:23:39.572Z,83.93
2022-10-22T02:26:40.011Z,83.98
2022-10-22T02:29:20.865Z,83.85
2022-10-22T02:31:50.474Z,83.83
2022-10-22T02:34:22.160Z,83.99
2022-10-22T02:36:50.662Z,83.95
2022-10-22T02:39:19.290Z,83.95
2022-10-22T02:41:46.048Z,83.98
2022-10-22T02:44:12.706Z,83.99
2022-10-22T02:46:41.155Z,84.02
2022-10-22T02:49:07.789Z,84.11
2022-10-22T02:51:34.835Z,84.13
2022-10-22T02:54:01.838Z,84.18
2022-10-22T02:56:28.966Z,84.25
2022-10-22T02:58:55.707Z,84.29
2022-10-22T03:01:22.413Z,84.28
2022-10-22T03:03:49.061Z,84.20
2022-10-22T03:06:15.740Z,84.25
2022-10-22T03:08:42.613Z,84.39
2022-10-22T03:11:09.477Z,84.40
2022-10-22T03:13:36.102Z,84.39
2022-10-22T03:16:02.777Z,84.38
2022-10-22T03:18:29.409Z,84.38
2022-10-22T03:21:11.399Z,84.42
2022-10-22T03:23:41.133Z,84.43
2022-10-22T03:26:09.143Z,84.29
2022-10-22T03:28:37.210Z,84.23
2022-10-22T03:31:03.810Z,84.14
2022-10-22T03:33:30.342Z,83.89
2022-10-22T03:35:57.007Z,83.80
2022-10-22T03:38:23.784Z,83.69
2022-10-22T03:40:50.645Z,83.53
2022-10-22T03:43:17.965Z,83.19
2022-10-22T03:45:44.694Z,83.00
2022-10-22T03:48:11.234Z,83.08
2022-10-22T03:50:37.813Z,82.78
2022-10-22T03:53:05.267Z,82.50
2022-10-22T03:55:31.824Z,82.29
2022-10-22T03:57:58.452Z,82.32
2022-10-22T04:00:25.014Z,82.30
2022-10-22T04:02:51.628Z,82.28
2022-10-22T04:05:18.230Z,82.31
2022-10-22T04:07:44.927Z,82.31
2022-10-22T04:10:11.577Z,82.50
2022-10-22T04:12:38.236Z,82.53
2022-10-22T04:15:05.633Z,82.55
2022-10-22T04:17:37.155Z,82.51
2022-10-22T04:20:05.188Z,82.64
2022-10-22T04:22:35.029Z,82.62
2022-10-22T04:25:03.964Z,82.70
2022-10-22T04:27:32.894Z,82.68
2022-10-22T04:29:59.524Z,82.78
2022-10-22T04:32:28.166Z,82.69
2022-10-22T04:34:54.827Z,82.69
2022-10-22T04:37:21.894Z,82.62
2022-10-22T04:39:48.443Z,82.60
2022-10-22T04:42:15.078Z,82.49
2022-10-22T04:44:41.650Z,82.27
2022-10-22T04:47:08.298Z,82.28
2022-10-22T04:49:34.916Z,82.03
2022-10-22T04:52:01.485Z,82.13
2022-10-22T04:54:32.166Z,81.99
2022-10-22T04:56:59.900Z,81.91
2022-10-22T04:59:26.475Z,81.95
2022-10-22T05:01:53.075Z,81.92
2022-10-22T05:04:19.817Z,81.83
2022-10-22T05:06:46.607Z,81.67
2022-10-22T05:09:19.375Z,81.53
2022-10-22T05:11:50.029Z,81.44
2022-10-22T05:14:24.097Z,81.43
2022-10-22T05:16:51.797Z,81.46
2022-10-22T05:19:30.831Z,81.22
2022-10-22T05:22:02.457Z,80.97
2022-10-22T05:24:32.043Z,80.87
2022-10-22T05:27:00.299Z,80.86
2022-10-22T05:29:27.734Z,80.73
2022-10-22T05:31:55.248Z,80.81
2022-10-22T05:34:22.156Z,80.81
2022-10-22T05:36:48.728Z,80.77
2022-10-22T05:39:15.530Z,80.58
2022-10-22T05:41:42.221Z,80.55
2022-10-22T05:44:12.430Z,80.47
2022-10-22T05:46:39.545Z,80.35
2022-10-22T05:49:07.844Z,80.37
2022-10-22T05:51:37.437Z,80.11
2022-10-22T05:54:08.431Z,80.35
2022-10-22T05:56:37.022Z,80.19
2022-10-22T05:59:04.417Z,80.16
2022-10-22T06:01:35.507Z,80.07
2022-10-22T06:04:06.757Z,80.12
2022-10-22T06:06:50.697Z,80.36
2022-10-22T06:09:19.888Z,80.28
2022-10-22T06:11:47.254Z,80.22
2022-10-22T06:14:15.339Z,80.20
2022-10-22T06:16:42.034Z,80.13
2022-10-22T06:19:12.720Z,80.01
2022-10-22T06:21:39.918Z,79.82
2022-10-22T06:24:07.409Z,79.94
2022-10-22T06:26:34.078Z,80.00
2022-10-22T06:29:00.833Z,79.93
2022-10-22T06:31:28.761Z,79.94
2022-10-22T06:33:56.898Z,80.11
2022-10-22T06:36:24.867Z,79.99
2022-10-22T06:38:53.772Z,79.80
2022-10-22T06:41:24.289Z,79.86
2022-10-22T06:43:54.610Z,79.71
2022-10-22T06:46:22.903Z,79.94
2022-10-22T06:48:56.500Z,80.05
2022-10-22T06:51:23.903Z,80.04
2022-10-22T06:53:50.830Z,79.80
2022-10-22T06:56:21.900Z,79.65
2022-10-22T06:58:53.930Z,79.56
2022-10-22T07:01:25.226Z,79.34
2022-10-22T07:03:53.606Z,79.28
2022-10-22T07:06:21.662Z,79.32
2022-10-22T07:08:48.693Z,79.13
2022-10-22T07:11:25.638Z,79.15
2022-10-22T07:13:55.782Z,79.06
2022-10-22T07:16:24.158Z,78.99
2022-10-22T07:18:53.461Z,79.03
2022-10-22T07:21:20.494Z,79.05
2022-10-22T07:23:47.635Z,79.22
2022-10-22T07:26:17.112Z,79.06
2022-10-22T07:28:44.119Z,79.14
2022-10-22T07:31:13.480Z,79.28
2022-10-22T07:33:41.084Z,79.35
2022-10-22T07:36:12.082Z,79.06
2022-10-22T07:38:40.762Z,78.78
2022-10-22T07:41:07.426Z,78.58
2022-10-22T07:43:34.044Z,78.45
2022-10-22T07:46:02.698Z,78.58
2022-10-22T07:48:29.461Z,78.79
2022-10-22T07:50:58.243Z,78.77
2022-10-22T07:53:25.214Z,78.57
2022-10-22T07:55:52.950Z,78.06
2022-10-22T07:58:21.183Z,77.93
2022-10-22T08:00:49.543Z,78.01
2022-10-22T08:03:18.610Z,77.90
2022-10-22T08:05:45.797Z,77.50
2022-10-22T08:08:15.492Z,77.45
2022-10-22T08:10:43.294Z,77.38
2022-10-22T08:13:10.817Z,77.33
2022-10-22T08:15:37.581Z,77.44
2022-10-22T08:18:04.576Z,77.61
2022-10-22T08:20:31.436Z,77.34
2022-10-22T08:22:58.608Z,77.60
2022-10-22T08:25:25.668Z,77.72
2022-10-22T08:27:52.490Z,77.66
2022-10-22T08:30:19.377Z,77.44
2022-10-22T08:32:46.511Z,77.48
2022-10-22T08:35:16.975Z,77.56
2022-10-22T08:37:44.513Z,77.61
2022-10-22T08:40:38.714Z,77.46
2022-10-22T08:43:26.833Z,77.62
2022-10-22T08:46:31.101Z,77.34
2022-10-22T08:49:01.001Z,77.33
2022-10-22T08:51:35.303Z,77.49
2022-10-22T08:54:39.391Z,77.24
2022-10-22T08:57:08.978Z,77.41
2022-10-22T08:59:49.702Z,77.24
2022-10-22T09:02:40.394Z,77.14
2022-10-22T09:05:41.111Z,77.04
2022-10-22T09:08:12.651Z,77.04
2022-10-22T09:10:49.994Z,76.96
2022-10-22T09:13:21.258Z,76.91
2022-10-22T09:15:57.793Z,76.78
2022-10-22T09:18:33.047Z,76.88
2022-10-22T09:21:20.345Z,76.72
2022-10-22T09:24:11.474Z,76.56
2022-10-22T09:26:40.966Z,76.06
2022-10-22T09:29:18.103Z,75.91
2022-10-22T09:31:44.995Z,75.99
2022-10-22T09:34:16.219Z,75.61
2022-10-22T09:36:42.851Z,75.60
2022-10-22T09:39:29.006Z,75.43
2022-10-22T09:41:55.636Z,75.41
2022-10-22T09:44:22.397Z,75.17
2022-10-22T09:46:49.470Z,74.78
2022-10-22T09:49:20.132Z,74.60
2022-10-22T09:51:59.212Z,74.45
2022-10-22T09:54:31.753Z,74.18
2022-10-22T09:57:17.609Z,73.80
2022-10-22T09:59:48.929Z,73.83
2022-10-22T10:02:43.683Z,73.73
2022-10-22T10:05:21.572Z,73.81
2022-10-22T10:07:48.144Z,73.90
2022-10-22T10:10:27.872Z,73.82
2022-10-22T10:13:09.579Z,73.88
2022-10-22T10:16:11.166Z,73.43
2022-10-22T10:18:49.429Z,72.52
2022-10-22T10:21:31.990Z,71.96
2022-10-22T10:24:04.545Z,71.48
2022-10-22T10:26:49.346Z,71.65
2022-10-22T10:29:42.181Z,71.06
2022-10-22T10:32:23.572Z,71.25
2022-10-22T10:35:22.192Z,70.90
2022-10-22T10:38:34.855Z,70.75
2022-10-22T10:41:13.371Z,69.94
2022-10-22T10:43:49.832Z,69.70
2022-10-22T10:46:52.941Z,69.41
2022-10-22T10:49:25.066Z,68.83
2022-10-22T10:52:21.302Z,68.53
2022-10-22T10:55:30.999Z,67.87
2022-10-22T10:58:46.404Z,67.89
2022-10-22T11:01:57.363Z,67.07
2022-10-22T11:04:57.592Z,66.72
2022-10-22T11:07:40.672Z,66.76
2022-10-22T11:10:22.296Z,66.87
2022-10-22T11:12:53.462Z,66.70
2022-10-22T11:15:35.282Z,66.45
2022-10-22T11:18:29.883Z,66.32
2022-10-22T11:21:11.116Z,66.16
2022-10-22T11:23:49.350Z,66.13
2022-10-22T11:26:34.309Z,66.24
2022-10-22T11:29:07.073Z,66.17
2022-10-22T11:31:34.086Z,65.84
2022-10-22T11:34:32.824Z,65.64
2022-10-22T11:37:02.947Z,65.71
2022-10-22T11:39:34.472Z,64.95
2022-10-22T11:42:09.665Z,64.56
2022-10-22T11:45:07.192Z,64.44
2022-10-22T11:47:53.368Z,64.28
2022-10-22T11:50:24.961Z,63.92
2022-10-22T11:53:06.038Z,62.71
2022-10-22T11:55:48.544Z,61.99
2022-10-22T11:58:30.212Z,61.42
2022-10-22T12:01:02.938Z,61.56
2022-10-22T12:03:32.575Z,60.71
2022-10-22T12:06:05.092Z,61.54
2022-10-22T12:08:34.128Z,62.11
2022-10-22T12:11:34.138Z,61.99
2022-10-22T12:14:24.288Z,61.49
2022-10-22T12:17:12.961Z,61.98
2022-10-22T12:19:44.360Z,61.49
2022-10-22T12:22:23.536Z,61.68
2022-10-22T12:25:00.796Z,61.48
2022-10-22T12:27:34.959Z,61.22
2022-10-22T12:30:17.566Z,61.48
2022-10-22T12:32:44.701Z,61.28
2022-10-22T12:35:23.570Z,60.76
2022-10-22T12:38:18.385Z,61.27
2022-10-22T12:40:48.630Z,61.72
2022-10-22T12:43:30.770Z,61.66
2022-10-22T12:45:59.402Z,60.59
2022-10-22T12:48:36.423Z,61.17
2022-10-22T12:51:08.066Z,60.81
2022-10-22T12:53:39.944Z,61.11
2022-10-22T12:56:16.309Z,60.38
2022-10-22T12:58:46.511Z,60.51
2022-10-22T13:01:16.075Z,60.57
2022-10-22T13:03:47.598Z,60.50
2022-10-22T13:06:23.816Z,60.29
2022-10-22T13:08:59.745Z,60.38
2022-10-22T13:11:38.864Z,60.82
2022-10-22T13:14:35.678Z,61.15
2022-10-22T13:17:18.775Z,61.00
2022-10-22T13:19:54.283Z,60.96
2022-10-22T13:22:37.179Z,60.75
2022-10-22T13:25:22.415Z,60.31
2022-10-22T13:27:55.004Z,60.22
2022-10-22T13:30:29.464Z,59.61
2022-10-22T13:33:00.303Z,59.24
2022-10-22T13:35:32.511Z,58.99
2022-10-22T13:38:00.583Z,58.68
2022-10-22T13:40:28.307Z,58.79
2022-10-22T13:42:54.829Z,58.10
2022-10-22T13:45:21.560Z,58.29
2022-10-22T13:47:52.305Z,58.09
2022-10-22T13:50:21.060Z,58.49
2022-10-22T13:52:53.644Z,58.61
2022-10-22T13:55:29.491Z,58.34
2022-10-22T14:00:47.694Z,58.29
2022-10-22T14:03:22.331Z,58.33
2022-10-22T14:05:49.197Z,58.42
2022-10-22T14:08:20.655Z,58.65
2022-10-22T14:10:47.343Z,58.79
2022-10-22T14:13:16.813Z,58.84
2022-10-22T14:15:47.132Z,58.84
2022-10-22T14:18:25.399Z,58.38
2022-10-22T14:21:10.312Z,58.63
2022-10-22T14:23:37.082Z,58.81
2022-10-22T14:26:04.345Z,58.83
2022-10-22T14:28:31.591Z,58.94
2022-10-22T14:31:10.965Z,58.89
2022-10-22T14:33:37.667Z,59.12
2022-10-22T14:36:04.949Z,59.46
2022-10-22T14:38:31.799Z,59.46
2022-10-22T14:41:00.213Z,59.21
2022-10-22T14:43:31.323Z,59.38
2022-10-22T14:45:58.400Z,59.49
2022-10-22T14:48:25.035Z,59.50
2022-10-22T14:50:51.914Z,59.90
2022-10-22T14:53:18.647Z,59.84
2022-10-22T14:55:47.474Z,60.01
2022-10-22T14:58:15.098Z,60.07
2022-10-22T15:00:43.504Z,59.89
2022-10-22T15:03:11.754Z,59.99
2022-10-22T15:05:46.373Z,59.98
2022-10-22T15:08:14.844Z,60.35
2022-10-22T15:10:41.801Z,60.42
2022-10-22T15:13:09.096Z,60.63
2022-10-22T15:15:39.534Z,60.80
2022-10-22T15:18:07.282Z,61.10
2022-10-22T15:20:33.990Z,60.83
2022-10-22T15:23:00.658Z,60.93
2022-10-22T15:25:27.404Z,60.97
2022-10-22T15:27:57.582Z,61.03
2022-10-22T15:30:28.528Z,60.54
2022-10-22T15:32:55.142Z,60.82
2022-10-22T15:35:21.675Z,60.61
2022-10-22T15:37:51.754Z,60.39
2022-10-22T15:40:18.999Z,60.20
2022-10-22T15:42:46.659Z,60.28
2022-10-22T15:45:13.257Z,60.47
2022-10-22T15:47:40.136Z,60.62
2022-10-22T15:50:07.899Z,60.52
2022-10-22T15:52:34.507Z,60.83
2022-10-22T15:55:04.150Z,60.90
2022-10-22T15:57:30.788Z,61.08
2022-10-22T15:59:57.356Z,61.34
2022-10-22T16:02:23.968Z,61.60
2022-10-22T16:04:50.569Z,61.83
2022-10-22T16:07:19.814Z,61.97
2022-10-22T16:09:49.211Z,62.21
2022-10-22T16:12:17.276Z,62.61
2022-10-22T16:14:44.165Z,62.85
2022-10-22T16:17:10.930Z,63.10
2022-10-22T16:19:37.571Z,63.42
2022-10-22T16:22:04.261Z,63.81
2022-10-22T16:24:30.951Z,63.96
2022-10-22T16:26:57.675Z,64.09
2022-10-22T16:29:24.236Z,64.36
2022-10-22T16:31:50.824Z,64.55
2022-10-22T16:34:17.394Z,64.69
2022-10-22T16:36:44.397Z,64.89
2022-10-22T16:39:11.083Z,65.06
2022-10-22T16:41:37.687Z,65.31
2022-10-22T16:44:07.923Z,65.53
2022-10-22T16:46:38.910Z,65.75
2022-10-22T16:49:06.753Z,65.94
2022-10-22T16:51:34.027Z,66.20
2022-10-22T16:54:00.626Z,66.52
2022-10-22T16:56:27.721Z,66.70
2022-10-22T16:58:56.839Z,66.94
2022-10-22T17:01:26.801Z,67.17
2022-10-22T17:03:56.906Z,67.34
2022-10-22T17:06:24.881Z,67.64
2022-10-22T17:08:51.643Z,67.76
2022-10-22T17:11:22.171Z,68.06
2022-10-22T17:13:52.612Z,68.39
2022-10-22T17:16:23.386Z,68.59
2022-10-22T17:18:50.819Z,68.72
2022-10-22T17:21:18.504Z,68.88
2022-10-22T17:23:45.716Z,69.01
2022-10-22T17:26:22.669Z,69.12
2022-10-22T17:28:49.913Z,69.33
2022-10-22T17:31:22.701Z,69.52
2022-10-22T17:33:51.945Z,69.77
2022-10-22T17:36:20.232Z,69.91
2022-10-22T17:38:53.728Z,70.11
2022-10-22T17:41:24.507Z,70.27
2022-10-22T17:43:51.611Z,70.51
2022-10-22T17:46:24.748Z,70.72
2022-10-22T17:49:01.966Z,70.91
2022-10-22T17:51:30.366Z,71.01
2022-10-22T17:53:57.375Z,71.13
2022-10-22T17:56:28.001Z,71.32
2022-10-22T17:58:55.505Z,71.58
2022-10-22T18:01:25.359Z,71.72
2022-10-22T18:03:54.906Z,71.70
2022-10-22T18:06:22.259Z,71.73
2022-10-22T18:08:49.026Z,71.80
2022-10-22T18:11:22.502Z,71.80
2022-10-22T18:13:51.699Z,71.85
2022-10-22T18:16:19.333Z,71.81
2022-10-22T18:18:48.655Z,71.85
2022-10-22T18:21:16.663Z,71.88
2022-10-22T18:23:43.360Z,71.92
2022-10-22T18:26:09.976Z,72.05
2022-10-22T18:28:37.031Z,72.18
2022-10-22T18:31:09.295Z,72.28
2022-10-22T18:33:37.166Z,72.38
2022-10-22T18:36:07.048Z,72.52
2022-10-22T18:38:33.911Z,72.64
2022-10-22T18:41:00.852Z,72.77
2022-10-22T18:43:28.337Z,72.93
2022-10-22T18:45:54.963Z,73.08
2022-10-22T18:48:22.986Z,73.16
2022-10-22T18:51:01.448Z,73.19
2022-10-22T18:53:28.307Z,73.20
2022-10-22T18:55:55.094Z,73.33
2022-10-22T18:58:21.806Z,73.48
2022-10-22T19:00:50.426Z,73.58
2022-10-22T19:03:20.478Z,73.67
2022-10-22T19:05:52.548Z,73.70
2022-10-22T19:08:20.043Z,73.76
2022-10-22T19:10:47.950Z,73.80
2022-10-22T19:13:17.812Z,73.85
2022-10-22T19:15:44.492Z,73.99
2022-10-22T19:18:12.908Z,74.00
2022-10-22T19:20:39.462Z,74.07
2022-10-22T19:23:07.315Z,74.12
2022-10-22T19:25:35.020Z,74.20
2022-10-22T19:28:01.582Z,74.31
2022-10-22T19:30:28.212Z,74.45
2022-10-22T19:32:54.748Z,74.55
2022-10-22T19:35:25.289Z,74.57
2022-10-22T19:37:52.224Z,74.58
2022-10-22T19:40:18.895Z,74.71
2022-10-22T19:42:49.875Z,74.80
2022-10-22T19:45:18.115Z,74.78
2022-10-22T19:47:44.675Z,74.81
2022-10-22T19:50:11.224Z,74.90
2022-10-22T19:52:37.783Z,74.98
2022-10-22T19:55:04.827Z,75.00
2022-10-22T19:57:31.387Z,75.09
2022-10-22T19:59:57.927Z,75.13
2022-10-22T20:02:26.134Z,75.21
2022-10-22T20:04:52.626Z,75.27
2022-10-22T20:07:19.254Z,75.34
2022-10-22T20:09:45.864Z,75.38
2022-10-22T20:12:12.446Z,75.49
2022-10-22T20:14:40.558Z,75.48
2022-10-22T20:17:07.248Z,75.53
2022-10-22T20:19:33.764Z,75.57
2022-10-22T20:22:00.405Z,75.63
2022-10-22T20:24:26.973Z,75.69
2022-10-22T20:26:53.650Z,75.75
2022-10-22T20:29:20.321Z,75.80
2022-10-22T20:31:48.152Z,75.86
2022-10-22T20:34:15.004Z,75.90
2022-10-22T20:36:41.792Z,75.92
2022-10-22T20:39:13.226Z,75.99
2022-10-22T20:41:40.614Z,76.11
2022-10-22T20:44:12.877Z,76.17
2022-10-22T20:46:39.491Z,76.19
2022-10-22T20:49:11.615Z,76.20
2022-10-22T20:51:38.296Z,76.21
2022-10-22T20:54:07.553Z,76.30
2022-10-22T20:56:37.094Z,76.30
2022-10-22T20:59:05.053Z,76.36
2022-10-22T21:01:36.599Z,76.42
2022-10-22T21:04:04.237Z,76.49
2022-10-22T21:06:30.855Z,76.48
2022-10-22T21:08:57.476Z,76.51
2022-10-22T21:11:24.196Z,76.70
2022-10-22T21:13:50.819Z,76.69
2022-10-22T21:16:19.668Z,76.72
2022-10-22T21:18:47.463Z,76.79
2022-10-22T21:21:14.132Z,76.83
2022-10-22T21:23:40.689Z,76.90
2022-10-22T21:26:07.220Z,76.90
2022-10-22T21:28:36.718Z,76.90
2022-10-22T21:31:06.260Z,76.96
2022-10-22T21:33:37.411Z,76.99
2022-10-22T21:36:05.506Z,77.03
2022-10-22T21:38:32.948Z,77.08
2022-10-22T21:41:08.189Z,77.09
2022-10-22T21:43:38.020Z,77.11
2022-10-22T21:46:15.622Z,77.21
2022-10-22T21:48:43.481Z,77.29
2022-10-22T21:51:17.672Z,77.31
2022-10-22T21:53:45.696Z,77.35
2022-10-22T21:56:23.274Z,77.39
2022-10-22T21:58:50.500Z,77.48
2022-10-22T22:01:18.350Z,77.52
2022-10-22T22:03:50.537Z,77.53
2022-10-22T22:06:21.430Z,77.62
2022-10-22T22:08:49.917Z,77.60
2022-10-22T22:11:20.152Z,77.64
2022-10-22T22:13:48.788Z,77.64
2022-10-22T22:16:25.454Z,77.71
2022-10-22T22:18:56.677Z,77.78
2022-10-22T22:21:23.387Z,77.80
2022-10-22T22:23:51.060Z,77.84
2022-10-22T22:26:25.464Z,77.95
2022-10-22T22:28:56.728Z,78.02
2022-10-22T22:31:34.837Z,78.09
2022-10-22T22:34:17.199Z,78.18
2022-10-22T22:36:47.703Z,78.26
2022-10-22T22:39:18.389Z,78.31
2022-10-22T22:41:45.689Z,78.38
2022-10-22T22:44:13.239Z,78.43
2022-10-22T22:46:39.916Z,78.48
2022-10-22T22:49:07.166Z,78.50
2022-10-22T22:51:33.763Z,78.53
2022-10-22T22:54:01.393Z,78.58
2022-10-22T22:56:31.410Z,78.61
2022-10-22T22:58:58.550Z,78.67
2022-10-22T23:01:37.112Z,78.69
2022-10-22T23:04:08.788Z,78.71
2022-10-22T23:06:37.732Z,78.77
2022-10-22T23:09:10.434Z,78.80
2022-10-22T23:11:37.458Z,78.81
2022-10-22T23:14:07.189Z,78.85
2022-10-22T23:16:37.695Z,78.89
2022-10-22T23:19:05.529Z,78.91
2022-10-22T23:21:36.794Z,78.94
2022-10-22T23:24:09.127Z,78.98
2022-10-22T23:26:42.178Z,79.00
2022-10-22T23:29:13.819Z,79.01
2022-10-22T23:31:42.159Z,79.05
2022-10-22T23:34:11.754Z,79.10
2022-10-22T23:36:39.209Z,79.17
2022-10-22T23:39:09.871Z,79.20
2022-10-22T23:41:37.323Z,79.27
2022-10-22T23:44:05.321Z,79.30
2022-10-22T23:46:33.295Z,79.28
2022-10-22T23:49:01.113Z,79.30
2022-10-22T23:51:28.269Z,79.30
2022-10-22T23:54:07.510Z,79.30
2022-10-22T23:56:35.493Z,79.30
2022-10-22T23:59:03.870Z,79.31
